createdAt,value
2022-10-21T00:00:00.084Z,99524.72
2022-10-21T00:02:02.082Z,99534.25
2022-10-21T00:04:05.025Z,99538.53
2022-10-21T00:06:08.910Z,99522.88
2022-10-21T00:08:11.522Z,99509.88
2022-10-21T00:10:13.625Z,99532.59
2022-10-21T00:12:15.891Z,99526.63
2022-10-21T00:14:20.307Z,99524.84
2022-10-21T00:16:22.502Z,99515.28
2022-10-21T00:18:24.590Z,99527.63
2022-10-21T00:20:26.861Z,99510.22
2022-10-21T00:22:29.393Z,99507.59
2022-10-21T00:24:31.592Z,99520.75
2022-10-21T00:26:37.609Z,99514.72
2022-10-21T00:28:41.442Z,99497.41
2022-10-21T00:30:45.759Z,99519.13
2022-10-21T00:32:48.702Z,99508.75
2022-10-21T00:34:51.132Z,99476.50
2022-10-21T00:36:53.483Z,99509.63
2022-10-21T00:38:57.231Z,99505.28
2022-10-21T00:41:00.270Z,99472.22
2022-10-21T00:43:02.710Z,99460.91
2022-10-21T00:45:07.453Z,99483.59
2022-10-21T00:47:17.197Z,99453.97
2022-10-21T00:49:39.277Z,99476.72
2022-10-21T00:51:42.332Z,99467.09
2022-10-21T00:53:47.755Z,99471.50
2022-10-21T00:55:56.241Z,99468.81
2022-10-21T00:57:58.673Z,99474.94
2022-10-21T01:00:02.344Z,99483.59
2022-10-21T01:02:06.489Z,99470.34
2022-10-21T01:04:08.744Z,99474.72
2022-10-21T01:06:13.016Z,99494.69
2022-10-21T01:08:15.154Z,99492.00
2022-10-21T01:10:18.342Z,99497.25
2022-10-21T01:12:32.442Z,99505.91
2022-10-21T01:17:44.054Z,99505.91
2022-10-21T01:20:27.985Z,99494.56
2022-10-21T01:22:58.164Z,99498.94
2022-10-21T01:25:20.064Z,99495.47
2022-10-21T01:27:35.348Z,99493.72
2022-10-21T01:30:06.417Z,99492.84
2022-10-21T01:32:32.653Z,99498.09
2022-10-21T01:34:54.486Z,99505.00
2022-10-21T01:37:31.503Z,99498.94
2022-10-21T01:39:46.180Z,99484.13
2022-10-21T01:42:06.212Z,99484.13
2022-10-21T01:44:29.641Z,99478.00
2022-10-21T01:46:55.837Z,99481.50
2022-10-21T01:49:04.465Z,99472.81
2022-10-21T01:51:11.714Z,99471.16
2022-10-21T01:53:16.264Z,99491.22
2022-10-21T01:55:21.584Z,99496.47
2022-10-21T01:57:27.222Z,99468.59
2022-10-21T01:59:32.942Z,99454.69
2022-10-21T02:01:37.200Z,99461.53
2022-10-21T02:03:42.828Z,99497.28
2022-10-21T02:05:45.198Z,99476.25
2022-10-21T02:07:48.057Z,99505.81
2022-10-21T02:09:50.185Z,99504.09
2022-10-21T02:11:57.375Z,99488.47
2022-10-21T02:14:24.246Z,99495.41
2022-10-21T02:16:33.733Z,99494.56
2022-10-21T02:18:36.032Z,99459.63
2022-10-21T02:20:42.613Z,99477.06
2022-10-21T02:22:47.144Z,99504.00
2022-10-21T02:24:54.951Z,99507.47
2022-10-21T02:26:57.719Z,99506.66
2022-10-21T02:29:00.417Z,99484.78
2022-10-21T02:31:26.348Z,99502.34
2022-10-21T02:33:46.926Z,99518.88
2022-10-21T02:36:24.213Z,99516.34
2022-10-21T02:38:33.228Z,99518.00
2022-10-21T02:40:51.610Z,99521.50
2022-10-21T02:43:06.179Z,99512.69
2022-10-21T02:45:09.755Z,99501.31
2022-10-21T02:49:14.223Z,99481.31
2022-10-21T02:51:16.695Z,99496.06
2022-10-21T02:53:19.003Z,99493.41
2022-10-21T02:55:21.162Z,99508.28
2022-10-21T02:57:23.385Z,99500.47
2022-10-21T02:59:25.576Z,99511.94
2022-10-21T03:01:27.732Z,99518.00
2022-10-21T03:03:30.086Z,99508.38
2022-10-21T03:07:40.117Z,99497.16
2022-10-21T03:09:42.517Z,99507.56
2022-10-21T03:11:44.553Z,99514.59
2022-10-21T03:13:46.701Z,99508.53
2022-10-21T03:15:50.137Z,99498.00
2022-10-21T03:17:52.838Z,99501.53
2022-10-21T03:19:54.910Z,99505.03
2022-10-21T03:21:57.039Z,99480.69
2022-10-21T03:23:59.317Z,99502.47
2022-10-21T03:26:01.904Z,99498.16
2022-10-21T03:28:04.129Z,99493.81
2022-10-21T03:30:07.862Z,99497.28
2022-10-21T03:32:09.934Z,99502.47
2022-10-21T03:34:12.031Z,99499.75
2022-10-21T03:36:14.241Z,99485.78
2022-10-21T03:38:16.286Z,99498.91
2022-10-21T03:40:18.983Z,99495.31
2022-10-21T03:42:21.196Z,99513.63
2022-10-21T03:44:23.451Z,99509.19
2022-10-21T03:46:25.929Z,99507.41
2022-10-21T03:48:28.611Z,99504.81
2022-10-21T03:50:30.791Z,99460.31
2022-10-21T03:52:33.101Z,99515.28
2022-10-21T03:54:35.159Z,99511.00
2022-10-21T03:56:37.417Z,99504.88
2022-10-21T03:58:40.280Z,99506.59
2022-10-21T04:00:42.528Z,99501.41
2022-10-21T04:02:44.673Z,99510.19
2022-10-21T04:04:46.845Z,99506.66
2022-10-21T04:06:48.963Z,99518.09
2022-10-21T04:08:51.195Z,99523.25
2022-10-21T04:10:53.406Z,99505.91
2022-10-21T04:12:55.564Z,99524.16
2022-10-21T04:14:57.662Z,99509.41
2022-10-21T04:17:06.754Z,99505.94
2022-10-21T04:19:09.530Z,99525.06
2022-10-21T04:21:12.073Z,99514.66
2022-10-21T04:23:14.194Z,99524.22
2022-10-21T04:25:16.499Z,99519.91
2022-10-21T04:27:19.082Z,99520.78
2022-10-21T04:29:21.431Z,99531.13
2022-10-21T04:31:23.491Z,99517.34
2022-10-21T04:33:25.816Z,99531.91
2022-10-21T04:35:28.040Z,99523.28
2022-10-21T04:37:30.114Z,99527.69
2022-10-21T04:39:32.439Z,99508.53
2022-10-21T04:41:34.429Z,99536.38
2022-10-21T04:43:37.998Z,99528.47
2022-10-21T04:45:40.758Z,99517.22
2022-10-21T04:47:42.877Z,99533.88
2022-10-21T04:49:45.021Z,99526.00
2022-10-21T04:51:47.160Z,99539.25
2022-10-21T04:53:49.813Z,99532.25
2022-10-21T04:55:53.001Z,99534.97
2022-10-21T04:57:55.983Z,99514.94
2022-10-21T04:59:58.304Z,99530.72
2022-10-21T05:04:03.868Z,99542.28
2022-10-21T05:06:06.289Z,99531.94
2022-10-21T05:08:11.507Z,99543.28
2022-10-21T05:10:14.763Z,99541.66
2022-10-21T05:12:16.759Z,99536.56
2022-10-21T05:14:22.444Z,99536.66
2022-10-21T05:16:25.077Z,99536.72
2022-10-21T05:18:27.363Z,99529.78
2022-10-21T05:20:29.384Z,99537.78
2022-10-21T05:22:31.507Z,99534.38
2022-10-21T05:24:33.791Z,99523.09
2022-10-21T05:26:36.026Z,99526.72
2022-10-21T05:28:38.118Z,99532.91
2022-10-21T05:32:43.668Z,99536.69
2022-10-21T05:34:46.003Z,99522.69
2022-10-21T05:36:49.211Z,99539.22
2022-10-21T05:38:51.547Z,99550.53
2022-10-21T05:40:53.957Z,99556.59
2022-10-21T05:42:56.282Z,99549.59
2022-10-21T05:44:58.435Z,99522.59
2022-10-21T05:47:00.709Z,99556.66
2022-10-21T05:49:03.061Z,99558.34
2022-10-21T05:51:05.995Z,99539.16
2022-10-21T05:53:08.163Z,99567.09
2022-10-21T05:55:10.937Z,99547.88
2022-10-21T05:57:15.293Z,99542.66
2022-10-21T05:59:17.580Z,99567.16
2022-10-21T06:01:19.857Z,99551.41
2022-10-21T06:03:22.766Z,99566.19
2022-10-21T06:05:24.781Z,99573.94
2022-10-21T06:07:27.207Z,99574.78
2022-10-21T06:09:29.180Z,99560.09
2022-10-21T06:11:32.158Z,99574.78
2022-10-21T06:13:34.614Z,99571.38
2022-10-21T06:15:37.431Z,99573.16
2022-10-21T06:17:39.877Z,99558.53
2022-10-21T06:19:45.891Z,99522.75
2022-10-21T06:21:50.948Z,99554.19
2022-10-21T06:23:56.421Z,99556.88
2022-10-21T06:26:04.616Z,99541.28
2022-10-21T06:28:07.076Z,99547.44
2022-10-21T06:30:09.721Z,99561.53
2022-10-21T06:32:12.619Z,99512.81
2022-10-21T06:34:15.459Z,99562.53
2022-10-21T06:36:17.953Z,99564.28
2022-10-21T06:38:20.178Z,99576.53
2022-10-21T06:40:23.810Z,99567.84
2022-10-21T06:42:26.243Z,99556.56
2022-10-21T06:44:38.693Z,99570.53
2022-10-21T06:46:41.297Z,99550.59
2022-10-21T06:48:44.482Z,99522.75
2022-10-21T06:50:47.496Z,99560.19
2022-10-21T06:52:51.213Z,99552.28
2022-10-21T06:54:57.416Z,99554.88
2022-10-21T06:57:00.342Z,99581.06
2022-10-21T06:59:03.705Z,99548.81
2022-10-21T07:01:21.526Z,99558.44
2022-10-21T07:03:33.948Z,99545.47
2022-10-21T07:05:36.292Z,99548.16
2022-10-21T07:07:52.589Z,99570.03
2022-10-21T07:10:21.715Z,99545.63
2022-10-21T07:12:27.519Z,99544.84
2022-10-21T07:14:31.684Z,99563.25
2022-10-21T07:16:36.254Z,99562.47
2022-10-21T07:18:40.540Z,99551.25
2022-10-21T07:20:44.875Z,99554.84
2022-10-21T07:22:46.933Z,99552.28
2022-10-21T07:24:49.257Z,99554.13
2022-10-21T07:26:51.615Z,99568.97
2022-10-21T07:28:54.907Z,99567.25
2022-10-21T07:30:57.241Z,99549.91
2022-10-21T07:33:02.748Z,99539.50
2022-10-21T07:35:05.190Z,99554.31
2022-10-21T07:37:07.320Z,99551.72
2022-10-21T07:39:14.699Z,99559.56
2022-10-21T07:41:23.073Z,99556.13
2022-10-21T07:43:25.998Z,99556.13
2022-10-21T07:45:28.482Z,99537.88
2022-10-21T07:47:30.574Z,99550.06
2022-10-21T07:49:32.665Z,99557.03
2022-10-21T07:51:34.811Z,99521.34
2022-10-21T07:53:36.913Z,99554.47
2022-10-21T07:55:39.091Z,99541.41
2022-10-21T07:57:41.873Z,99556.22
2022-10-21T07:59:44.104Z,99545.75
2022-10-21T08:03:56.321Z,99578.81
2022-10-21T08:06:33.231Z,99556.25
2022-10-21T08:08:36.260Z,99548.41
2022-10-21T08:10:42.201Z,99574.50
2022-10-21T08:12:44.693Z,99568.44
2022-10-21T08:14:46.857Z,99547.53
2022-10-21T08:16:53.292Z,99566.72
2022-10-21T08:18:55.984Z,99571.97
2022-10-21T08:20:58.354Z,99558.91
2022-10-21T08:23:00.739Z,99558.09
2022-10-21T08:25:03.015Z,99553.75
2022-10-21T08:27:08.520Z,99570.31
2022-10-21T08:29:10.821Z,99546.81
2022-10-21T08:31:15.632Z,99562.47
2022-10-21T08:33:18.357Z,99556.38
2022-10-21T08:35:20.569Z,99559.00
2022-10-21T08:37:25.508Z,99545.94
2022-10-21T08:39:29.201Z,99559.88
2022-10-21T08:41:31.380Z,99565.94
2022-10-21T08:43:35.497Z,99537.25
2022-10-21T08:45:45.896Z,99515.50
2022-10-21T08:47:53.027Z,99533.75
2022-10-21T08:50:34.116Z,99552.06
2022-10-21T08:52:44.222Z,99551.16
2022-10-21T08:54:53.746Z,99525.06
2022-10-21T08:57:00.518Z,99528.53
2022-10-21T08:59:02.683Z,99524.16
2022-10-21T09:01:26.401Z,99547.66
2022-10-21T09:03:58.676Z,99532.84
2022-10-21T09:06:13.143Z,99545.91
2022-10-21T09:08:58.502Z,99526.78
2022-10-21T09:11:12.086Z,99558.97
2022-10-21T09:13:25.655Z,99549.41
2022-10-21T09:15:41.801Z,99554.63
2022-10-21T09:18:02.738Z,99559.88
2022-10-21T09:20:22.383Z,99559.88
2022-10-21T09:22:47.662Z,99564.22
2022-10-21T09:25:00.471Z,99555.50
2022-10-21T09:27:04.078Z,99559.88
2022-10-21T09:29:29.236Z,99552.91
2022-10-21T09:31:31.508Z,99547.66
2022-10-21T09:33:37.298Z,99560.72
2022-10-21T09:35:49.581Z,99568.56
2022-10-21T09:37:55.337Z,99566.84
2022-10-21T09:40:20.301Z,99575.53
2022-10-21T09:42:45.858Z,99552.03
2022-10-21T09:44:50.489Z,99572.94
2022-10-21T09:46:54.518Z,99573.78
2022-10-21T09:49:36.296Z,99568.56
2022-10-21T09:51:22.100Z,99573.78
2022-10-21T09:53:49.999Z,99573.78
2022-10-21T09:56:02.486Z,99576.41
2022-10-21T09:58:04.858Z,99564.22
2022-10-21T10:00:11.069Z,99548.56
2022-10-21T10:02:25.954Z,99539.00
2022-10-21T10:04:35.564Z,99558.13
2022-10-21T10:06:43.500Z,99549.41
2022-10-21T10:08:48.823Z,99552.88
2022-10-21T10:10:50.989Z,99556.38
2022-10-21T10:12:58.755Z,99544.19
2022-10-21T10:15:29.385Z,99530.25
2022-10-21T10:17:37.415Z,99558.13
2022-10-21T10:19:39.612Z,99550.28
2022-10-21T10:21:42.406Z,99530.28
2022-10-21T10:23:50.807Z,99546.78
2022-10-21T10:25:53.175Z,99544.16
2022-10-21T10:27:56.770Z,99560.72
2022-10-21T10:30:01.420Z,99557.22
2022-10-21T10:32:15.552Z,99547.69
2022-10-21T10:34:24.885Z,99550.28
2022-10-21T10:36:31.570Z,99531.16
2022-10-21T10:38:41.327Z,99555.50
2022-10-21T10:40:44.159Z,99551.13
2022-10-21T10:42:46.730Z,99553.75
2022-10-21T10:44:53.702Z,99544.22
2022-10-21T10:46:59.133Z,99530.28
2022-10-21T10:49:33.913Z,99535.50
2022-10-21T10:51:36.414Z,99530.28
2022-10-21T10:53:39.078Z,99524.19
2022-10-21T10:55:46.118Z,99528.50
2022-10-21T10:58:05.935Z,99529.38
2022-10-21T11:00:21.067Z,99524.13
2022-10-21T11:02:34.423Z,99510.22
2022-10-21T11:05:01.681Z,99519.81
2022-10-21T11:07:17.636Z,99512.00
2022-10-21T11:09:27.296Z,99516.34
2022-10-21T11:11:37.788Z,99523.31
2022-10-21T11:13:42.219Z,99510.28
2022-10-21T11:16:05.755Z,99530.25
2022-10-21T11:18:29.900Z,99538.94
2022-10-21T11:20:45.155Z,99515.41
2022-10-21T11:25:24.065Z,99531.03
2022-10-21T11:27:34.771Z,99532.78
2022-10-21T11:30:04.135Z,99528.41
2022-10-21T11:32:21.412Z,99529.25
2022-10-21T11:34:39.352Z,99517.91
2022-10-21T11:36:56.961Z,99510.94
2022-10-21T11:39:35.705Z,99517.03
2022-10-21T11:41:51.682Z,99477.94
2022-10-21T11:44:03.469Z,99507.53
2022-10-21T11:46:33.111Z,99500.63
2022-10-21T11:48:49.275Z,99502.38
2022-10-21T11:51:06.330Z,99484.13
2022-10-21T11:53:35.227Z,99501.50
2022-10-21T11:55:42.812Z,99504.13
2022-10-21T11:58:15.100Z,99502.38
2022-10-21T12:00:49.195Z,99509.34
2022-10-21T12:02:54.206Z,99505.06
2022-10-21T12:05:14.026Z,99505.91
2022-10-21T12:07:24.729Z,99505.06
2022-10-21T12:09:51.508Z,99498.09
2022-10-21T12:12:16.774Z,99494.63
2022-10-21T12:14:34.519Z,99498.97
2022-10-21T12:16:36.808Z,99498.13
2022-10-21T12:18:45.069Z,99489.41
2022-10-21T12:20:50.384Z,99498.97
2022-10-21T12:23:05.722Z,99486.81
2022-10-21T12:25:13.588Z,99503.34
2022-10-21T12:27:30.668Z,99496.34
2022-10-21T12:30:17.349Z,99491.16
2022-10-21T12:32:41.392Z,99497.25
2022-10-21T12:34:45.786Z,99489.41
2022-10-21T12:36:54.267Z,99442.41
2022-10-21T12:39:01.800Z,99485.06
2022-10-21T12:41:38.314Z,99492.88
2022-10-21T12:43:41.726Z,99475.47
2022-10-21T12:45:44.620Z,99433.72
2022-10-21T12:47:55.010Z,99445.88
2022-10-21T12:50:04.515Z,99478.97
2022-10-21T12:52:22.688Z,99451.09
2022-10-21T12:54:30.671Z,99463.28
2022-10-21T12:56:47.330Z,99481.56
2022-10-21T12:58:59.380Z,99445.00
2022-10-21T13:01:02.907Z,99483.28
2022-10-21T13:03:07.950Z,99485.03
2022-10-21T13:05:10.353Z,99479.78
2022-10-21T13:07:15.490Z,99483.28
2022-10-21T13:10:08.266Z,99484.13
2022-10-21T13:12:10.505Z,99485.88
2022-10-21T13:14:35.117Z,99447.63
2022-10-21T13:16:41.675Z,99449.34
2022-10-21T13:18:55.995Z,99479.75
2022-10-21T13:20:59.974Z,99460.63
2022-10-21T13:23:36.536Z,99473.66
2022-10-21T13:25:41.335Z,99429.28
2022-10-21T13:27:51.499Z,99457.09
2022-10-21T13:29:55.179Z,99436.19
2022-10-21T13:32:37.901Z,99477.94
2022-10-21T13:35:19.401Z,99484.03
2022-10-21T13:37:31.562Z,99489.22
2022-10-21T13:39:35.368Z,99486.63
2022-10-21T13:41:37.665Z,99487.47
2022-10-21T13:43:46.489Z,99484.00
2022-10-21T13:45:51.629Z,99477.03
2022-10-21T13:48:12.881Z,99491.78
2022-10-21T13:50:30.993Z,99450.88
2022-10-21T13:52:33.456Z,99467.41
2022-10-21T13:54:36.045Z,99463.94
2022-10-21T13:56:42.154Z,99500.47
2022-10-21T13:58:45.285Z,99490.00
2022-10-21T14:00:47.895Z,99466.50
2022-10-21T14:02:54.013Z,99465.59
2022-10-21T14:04:57.062Z,99496.91
2022-10-21T14:07:04.895Z,99516.94
2022-10-21T14:09:10.351Z,99517.75
2022-10-21T14:11:16.407Z,99509.06
2022-10-21T14:13:24.828Z,99518.59
2022-10-21T14:16:36.493Z,99535.97
2022-10-21T14:19:02.989Z,99513.34
2022-10-21T14:21:06.782Z,99535.09
2022-10-21T14:23:22.126Z,99509.81
2022-10-21T14:25:31.172Z,99497.63
2022-10-21T14:27:35.814Z,99503.69
2022-10-21T14:29:39.151Z,99557.63
2022-10-21T14:31:46.400Z,99514.94
2022-10-21T14:33:50.658Z,99523.59
2022-10-21T14:36:07.555Z,99549.72
2022-10-21T14:38:28.521Z,99543.66
2022-10-21T14:40:41.731Z,99554.94
2022-10-21T14:42:45.650Z,99506.19
2022-10-21T14:44:54.808Z,99500.97
2022-10-21T14:46:58.880Z,99509.69
2022-10-21T14:49:06.231Z,99509.69
2022-10-21T14:51:15.321Z,99509.69
2022-10-21T14:53:24.539Z,99493.13
2022-10-21T14:55:31.143Z,99488.78
2022-10-21T14:57:45.750Z,99542.75
2022-10-21T14:59:51.295Z,99495.66
2022-10-21T15:01:53.950Z,99500.88
2022-10-21T15:04:00.949Z,99533.97
2022-10-21T15:06:14.544Z,99536.59
2022-10-21T15:08:22.384Z,99505.22
2022-10-21T15:10:33.763Z,99528.72
2022-10-21T15:12:53.138Z,99554.84
2022-10-21T15:15:26.083Z,99505.19
2022-10-21T15:17:45.414Z,99522.59
2022-10-21T15:19:52.975Z,99513.03
2022-10-21T15:22:02.361Z,99538.34
2022-10-21T15:24:17.222Z,99543.50
2022-10-21T15:26:24.791Z,99546.97
2022-10-21T15:28:33.169Z,99551.34
2022-10-21T15:30:37.755Z,99559.13
2022-10-21T15:32:40.981Z,99553.00
2022-10-21T15:36:48.336Z,99565.22
2022-10-21T15:38:50.989Z,99570.34
2022-10-21T15:40:53.089Z,99554.75
2022-10-21T15:42:56.901Z,99559.06
2022-10-21T15:44:59.156Z,99559.09
2022-10-21T15:47:05.637Z,99572.16
2022-10-21T15:49:16.202Z,99541.69
2022-10-21T15:51:19.329Z,99553.00
2022-10-21T15:53:21.776Z,99519.91
2022-10-21T15:55:23.900Z,99566.06
2022-10-21T15:57:26.124Z,99559.03
2022-10-21T15:59:33.703Z,99569.47
2022-10-21T16:01:36.061Z,99565.06
2022-10-21T16:03:38.250Z,99539.78
2022-10-21T16:05:40.520Z,99558.06
2022-10-21T16:07:43.336Z,99533.63
2022-10-21T16:09:45.717Z,99546.63
2022-10-21T16:11:58.900Z,99562.25
2022-10-21T16:14:01.801Z,99548.25
2022-10-21T16:16:05.551Z,99556.94
2022-10-21T16:18:15.265Z,99550.00
2022-10-21T16:20:24.054Z,99568.25
2022-10-21T16:22:28.645Z,99542.13
2022-10-21T16:24:30.870Z,99548.25
2022-10-21T16:26:35.468Z,99556.97
2022-10-21T16:28:37.550Z,99556.97
2022-10-21T16:30:40.036Z,99551.75
2022-10-21T16:32:44.855Z,99560.47
2022-10-21T16:34:47.038Z,99550.81
2022-10-21T16:36:49.389Z,99538.53
2022-10-21T16:38:51.565Z,99565.41
2022-10-21T16:40:53.783Z,99542.63
2022-10-21T16:42:55.982Z,99541.69
2022-10-21T16:44:58.276Z,99559.13
2022-10-21T16:47:00.661Z,99572.16
2022-10-21T16:49:13.140Z,99566.09
2022-10-21T16:51:16.414Z,99577.41
2022-10-21T16:53:19.055Z,99578.25
2022-10-21T16:55:21.839Z,99552.97
2022-10-21T16:57:24.726Z,99566.94
2022-10-21T16:59:26.944Z,99524.16
2022-10-21T17:01:29.575Z,99531.97
2022-10-21T17:03:32.484Z,99546.78
2022-10-21T17:05:35.894Z,99538.91
2022-10-21T17:07:41.986Z,99530.97
2022-10-21T17:09:45.187Z,99514.41
2022-10-21T17:11:48.131Z,99557.09
2022-10-21T17:13:51.511Z,99569.31
2022-10-21T17:15:57.622Z,99516.13
2022-10-21T17:18:00.633Z,99571.00
2022-10-21T17:20:04.053Z,99576.22
2022-10-21T17:22:06.601Z,99540.47
2022-10-21T17:24:14.910Z,99557.06
2022-10-21T17:26:18.223Z,99514.50
2022-10-21T17:28:20.993Z,99534.56
2022-10-21T17:30:23.885Z,99554.63
2022-10-21T17:32:26.397Z,99508.44
2022-10-21T17:34:31.844Z,99486.59
2022-10-21T17:36:35.542Z,99543.28
2022-10-21T17:38:38.002Z,99503.09
2022-10-21T17:40:40.198Z,99531.81
2022-10-21T17:42:43.058Z,99551.84
2022-10-21T17:44:45.598Z,99522.19
2022-10-21T17:46:52.058Z,99516.09
2022-10-21T17:48:56.739Z,99544.91
2022-10-21T17:51:04.521Z,99483.94
2022-10-21T17:53:16.104Z,99512.63
2022-10-21T17:55:22.028Z,99551.00
2022-10-21T17:57:38.553Z,99536.22
2022-10-21T17:59:47.577Z,99492.53
2022-10-21T18:02:01.903Z,99537.00
2022-10-21T18:04:38.727Z,99551.84
2022-10-21T18:06:45.229Z,99528.22
2022-10-21T18:08:47.925Z,99544.78
2022-10-21T18:10:55.518Z,99559.53
2022-10-21T18:12:57.659Z,99556.03
2022-10-21T18:14:59.806Z,99564.66
2022-10-21T18:17:01.992Z,99565.50
2022-10-21T18:19:04.576Z,99562.81
2022-10-21T18:21:09.278Z,99566.28
2022-10-21T18:23:11.867Z,99566.25
2022-10-21T18:25:15.526Z,99568.03
2022-10-21T18:27:17.691Z,99570.72
2022-10-21T18:29:19.735Z,99559.44
2022-10-21T18:31:21.856Z,99568.25
2022-10-21T18:33:23.880Z,99572.59
2022-10-21T18:35:29.122Z,99570.94
2022-10-21T18:37:32.856Z,99569.25
2022-10-21T18:39:34.962Z,99570.13
2022-10-21T18:41:38.671Z,99563.25
2022-10-21T18:43:42.466Z,99566.78
2022-10-21T18:45:45.855Z,99560.75
2022-10-21T18:47:50.062Z,99575.53
2022-10-21T18:49:52.245Z,99572.97
2022-10-21T18:51:54.681Z,99580.84
2022-10-21T18:53:57.232Z,99579.97
2022-10-21T18:56:02.363Z,99582.59
2022-10-21T18:58:04.477Z,99580.03
2022-10-21T19:00:07.470Z,99579.19
2022-10-21T19:02:17.704Z,99583.53
2022-10-21T19:04:20.344Z,99577.47
2022-10-21T19:06:28.130Z,99584.50
2022-10-21T19:08:30.226Z,99586.25
2022-10-21T19:10:32.411Z,99593.19
2022-10-21T19:12:37.939Z,99586.25
2022-10-21T19:14:40.270Z,99587.16
2022-10-21T19:16:42.781Z,99590.63
2022-10-21T19:18:44.887Z,99594.97
2022-10-21T19:20:47.082Z,99594.13
2022-10-21T19:22:50.614Z,99595.00
2022-10-21T19:24:53.168Z,99579.41
2022-10-21T19:26:56.739Z,99588.09
2022-10-21T19:29:15.461Z,99595.88
2022-10-21T19:31:21.118Z,99595.88
2022-10-21T19:33:23.213Z,99588.94
2022-10-21T19:35:31.550Z,99595.81
2022-10-21T19:37:35.120Z,99593.19
2022-10-21T19:39:37.816Z,99598.34
2022-10-21T19:41:40.261Z,99603.53
2022-10-21T19:43:49.598Z,99607.81
2022-10-21T19:45:56.012Z,99606.06
2022-10-21T19:47:58.174Z,99606.88
2022-10-21T19:50:03.889Z,99608.59
2022-10-21T19:52:06.090Z,99609.47
2022-10-21T19:54:09.817Z,99610.34
2022-10-21T19:56:13.584Z,99613.81
2022-10-21T19:58:15.776Z,99619.84
2022-10-21T20:00:18.174Z,99618.13
2022-10-21T20:02:20.531Z,99614.66
2022-10-21T20:04:24.870Z,99617.25
2022-10-21T20:06:35.031Z,99620.75
2022-10-21T20:08:38.683Z,99614.72
2022-10-21T20:10:40.872Z,99615.63
2022-10-21T20:12:43.154Z,99612.13
2022-10-21T20:14:45.340Z,99617.38
2022-10-21T20:16:49.253Z,99605.25
2022-10-21T20:18:51.519Z,99614.84
2022-10-21T20:20:53.898Z,99614.88
2022-10-21T20:22:56.264Z,99611.41
2022-10-21T20:24:58.304Z,99616.69
2022-10-21T20:27:02.233Z,99618.41
2022-10-21T20:29:04.828Z,99612.34
2022-10-21T20:31:08.358Z,99616.69
2022-10-21T20:33:12.630Z,99611.41
2022-10-21T20:35:14.893Z,99610.56
2022-10-21T20:37:17.052Z,99620.09
2022-10-21T20:39:19.223Z,99617.44
2022-10-21T20:41:28.489Z,99616.59
2022-10-21T20:43:30.646Z,99615.69
2022-10-21T20:45:34.237Z,99621.75
2022-10-21T20:47:36.363Z,99616.47
2022-10-21T20:49:39.755Z,99627.78
2022-10-21T20:51:42.574Z,99617.38
2022-10-21T20:53:49.938Z,99612.16
2022-10-21T20:56:04.108Z,99609.59
2022-10-21T20:58:06.305Z,99623.50
2022-10-21T21:00:16.192Z,99613.09
2022-10-21T21:02:18.933Z,99622.66
2022-10-21T21:04:25.468Z,99609.56
2022-10-21T21:06:31.968Z,99588.66
2022-10-21T21:08:36.102Z,99613.00
2022-10-21T21:10:43.692Z,99621.66
2022-10-21T21:12:49.728Z,99605.03
2022-10-21T21:14:55.230Z,99591.91
2022-10-21T21:16:57.510Z,99624.16
2022-10-21T21:19:05.228Z,99622.34
2022-10-21T21:21:10.349Z,99631.03
2022-10-21T21:23:12.660Z,99627.56
2022-10-21T21:25:18.370Z,99620.56
2022-10-21T21:27:20.751Z,99628.38
2022-10-21T21:29:23.271Z,99629.25
2022-10-21T21:31:26.398Z,99635.31
2022-10-21T21:33:28.636Z,99629.16
2022-10-21T21:35:31.008Z,99625.66
2022-10-21T21:37:36.276Z,99641.31
2022-10-21T21:39:38.651Z,99633.47
2022-10-21T21:41:40.770Z,99642.16
2022-10-21T21:43:45.629Z,99641.28
2022-10-21T21:45:48.467Z,99647.38
2022-10-21T21:47:50.895Z,99641.31
2022-10-21T21:49:52.957Z,99639.59
2022-10-21T21:51:55.367Z,99628.22
2022-10-21T21:53:58.721Z,99640.53
2022-10-21T21:56:05.852Z,99637.03
2022-10-21T21:58:08.837Z,99631.84
2022-10-21T22:00:13.008Z,99625.72
2022-10-21T22:02:15.557Z,99628.31
2022-10-21T22:04:17.631Z,99626.56
2022-10-21T22:06:22.689Z,99633.47
2022-10-21T22:08:25.100Z,99629.16
2022-10-21T22:10:28.137Z,99636.06
2022-10-21T22:12:30.397Z,99646.41
2022-10-21T22:14:32.829Z,99639.47
2022-10-21T22:16:35.300Z,99641.22
2022-10-21T22:18:37.887Z,99638.66
2022-10-21T22:20:40.734Z,99646.47
2022-10-21T22:22:43.955Z,99635.19
2022-10-21T22:24:46.515Z,99622.22
2022-10-21T22:26:49.279Z,99644.03
2022-10-21T22:28:52.787Z,99635.34
2022-10-21T22:31:00.776Z,99638.00
2022-10-21T22:33:04.735Z,99637.16
2022-10-21T22:35:08.740Z,99642.34
2022-10-21T22:37:11.725Z,99639.78
2022-10-21T22:39:14.151Z,99641.53
2022-10-21T22:41:17.224Z,99641.56
2022-10-21T22:43:19.602Z,99635.44
2022-10-21T22:45:21.866Z,99644.13
2022-10-21T22:47:24.742Z,99644.97
2022-10-21T22:49:27.221Z,99641.47
2022-10-21T22:51:29.314Z,99645.84
2022-10-21T22:53:31.681Z,99641.47
2022-10-21T22:55:34.150Z,99644.16
2022-10-21T22:57:36.536Z,99641.63
2022-10-21T22:59:39.189Z,99640.78
2022-10-21T23:01:41.337Z,99641.63
2022-10-21T23:03:43.740Z,99633.75
2022-10-21T23:05:48.841Z,99645.09
2022-10-21T23:07:51.319Z,99641.63
2022-10-21T23:09:53.615Z,99636.44
2022-10-21T23:11:56.167Z,99636.41
2022-10-21T23:14:03.155Z,99632.91
2022-10-21T23:16:11.073Z,99630.25
2022-10-21T23:18:14.240Z,99632.00
2022-10-21T23:20:16.726Z,99638.13
2022-10-21T23:22:19.632Z,99640.75
2022-10-21T23:24:22.244Z,99632.06
2022-10-21T23:26:24.838Z,99628.59
2022-10-21T23:28:27.473Z,99641.69
2022-10-21T23:30:29.893Z,99632.13
2022-10-21T23:32:32.464Z,99639.97
2022-10-21T23:34:34.732Z,99639.09
2022-10-21T23:36:37.240Z,99639.06
2022-10-21T23:38:39.466Z,99642.50
2022-10-21T23:40:41.987Z,99637.34
2022-10-21T23:42:44.265Z,99629.56
2022-10-21T23:44:46.483Z,99632.13
2022-10-21T23:46:49.674Z,99634.78
2022-10-21T23:48:52.020Z,99625.22
2022-10-21T23:50:54.775Z,99620.06
2022-10-21T23:52:57.684Z,99633.09
2022-10-21T23:55:00.350Z,99627.00
2022-10-21T23:57:02.587Z,99634.88
2022-10-21T23:59:07.058Z,99629.66
